createdAt,value
2018-09-10T00:01:08.345Z,101328.00
2018-09-10T00:07:12.120Z,101319.00
2018-09-10T00:13:15.634Z,101324.00
2018-09-10T00:19:19.142Z,101325.00
2018-09-10T00:25:22.973Z,101311.00
2018-09-10T00:31:26.323Z,101300.00
2018-09-10T00:37:30.351Z,101305.00
2018-09-10T00:43:33.969Z,101316.00
2018-09-10T00:49:37.361Z,101314.00
2018-09-10T00:55:42.129Z,101321.00
2018-09-10T01:01:45.771Z,101325.00
2018-09-10T01:07:49.245Z,101330.00
2018-09-10T01:13:53.366Z,101330.00
2018-09-10T01:19:56.945Z,101336.00
2018-09-10T01:26:01.418Z,101346.00
2018-09-10T01:32:05.041Z,101351.00
2018-09-10T01:38:09.014Z,101348.00
2018-09-10T01:44:12.885Z,101355.00
2018-09-10T01:50:16.281Z,101340.00
2018-09-10T01:56:19.702Z,101344.00
2018-09-10T02:02:23.830Z,101346.00
2018-09-10T02:08:27.375Z,101355.00
2018-09-10T02:14:31.177Z,101352.00
2018-09-10T02:20:34.532Z,101355.00
2018-09-10T02:26:37.981Z,101347.00
2018-09-10T02:32:41.411Z,101341.00
2018-09-10T02:38:44.895Z,101338.00
2018-09-10T02:44:48.412Z,101326.00
2018-09-10T02:50:51.953Z,101340.00
2018-09-10T02:56:55.755Z,101345.00
2018-09-10T03:02:59.428Z,101343.00
2018-09-10T03:09:03.756Z,101351.00
2018-09-10T03:15:07.284Z,101356.00
2018-09-10T03:21:11.157Z,101369.00
2018-09-10T03:27:14.959Z,101369.00
2018-09-10T03:33:18.744Z,101374.00
2018-09-10T03:39:22.454Z,101383.00
2018-09-10T03:45:25.999Z,101403.00
2018-09-10T03:51:29.662Z,101402.00
2018-09-10T03:57:33.616Z,101410.00
2018-09-10T04:03:37.429Z,101406.00
2018-09-10T04:09:42.276Z,101420.00
2018-09-10T04:15:46.080Z,101425.00
2018-09-10T04:21:50.304Z,101415.00
2018-09-10T04:27:54.874Z,101420.00
2018-09-10T04:33:58.702Z,101421.00
2018-09-10T04:40:02.261Z,101427.00
2018-09-10T04:46:05.751Z,101417.00
2018-09-10T04:52:09.524Z,101417.00
2018-09-10T04:58:13.420Z,101428.00
2018-09-10T05:04:17.179Z,101435.00
2018-09-10T05:10:20.697Z,101433.00
2018-09-10T05:16:24.406Z,101449.00
2018-09-10T05:22:33.276Z,101450.00
2018-09-10T05:28:36.803Z,101436.00
2018-09-10T05:34:40.461Z,101441.00
2018-09-10T05:40:43.982Z,101451.00
2018-09-10T05:46:47.735Z,101465.00
2018-09-10T05:52:51.333Z,101476.00
2018-09-10T05:58:54.763Z,101503.00
2018-09-10T06:04:58.356Z,101514.00
2018-09-10T06:11:02.381Z,101503.00
2018-09-10T06:17:06.222Z,101494.00
2018-09-10T06:23:09.653Z,101483.00
2018-09-10T06:29:14.084Z,101486.00
2018-09-10T06:35:18.218Z,101498.00
2018-09-10T06:41:22.049Z,101499.00
2018-09-10T06:47:25.726Z,101488.00
2018-09-10T06:53:29.358Z,101477.00
2018-09-10T06:59:33.437Z,101480.00
2018-09-10T07:05:37.149Z,101495.00
2018-09-10T07:11:40.702Z,101519.00
2018-09-10T07:17:44.415Z,101517.00
2018-09-10T07:23:48.065Z,101525.00
2018-09-10T07:29:52.531Z,101516.00
2018-09-10T07:35:56.238Z,101510.00
2018-09-10T07:42:00.994Z,101504.00
2018-09-10T07:48:05.008Z,101472.00
2018-09-10T07:54:08.537Z,101498.00
2018-09-10T08:00:12.532Z,101503.00
2018-09-10T08:06:17.069Z,101501.00
2018-09-10T08:12:20.449Z,101513.00
2018-09-10T08:18:24.866Z,101529.00
2018-09-10T08:24:28.385Z,101526.00
2018-09-10T08:30:31.856Z,101536.00
2018-09-10T08:36:35.989Z,101548.00
2018-09-10T08:42:39.599Z,101541.00
2018-09-10T08:48:43.744Z,101553.00
2018-09-10T08:54:47.947Z,101550.00
2018-09-10T09:00:51.310Z,101536.00
2018-09-10T09:06:55.600Z,101539.00
2018-09-10T09:12:59.190Z,101545.00
2018-09-10T09:19:02.805Z,101556.00
2018-09-10T09:25:06.438Z,101539.00
2018-09-10T09:31:17.296Z,101545.00
2018-09-10T09:37:26.408Z,101554.00
2018-09-10T09:43:42.188Z,101547.00
2018-09-10T09:49:45.566Z,101547.00
2018-09-10T09:55:49.431Z,101548.00
2018-09-10T10:01:57.380Z,101542.00
2018-09-10T10:08:01.276Z,101548.00
2018-09-10T10:14:05.751Z,101553.00
2018-09-10T10:20:09.165Z,101557.00
2018-09-10T10:26:12.874Z,101552.00
2018-09-10T10:32:16.436Z,101562.00
2018-09-10T10:38:19.710Z,101552.00
2018-09-10T10:44:23.442Z,101542.00
2018-09-10T10:50:27.603Z,101554.00
2018-09-10T10:56:31.913Z,101564.00
2018-09-10T11:02:35.701Z,101553.00
2018-09-10T11:08:39.195Z,101545.00
2018-09-10T11:14:42.817Z,101557.00
2018-09-10T11:20:53.547Z,101548.00
2018-09-10T11:26:57.110Z,101545.00
2018-09-10T11:33:00.828Z,101537.00
2018-09-10T11:39:05.690Z,101553.00
2018-09-10T11:45:10.068Z,101551.00
2018-09-10T11:51:13.904Z,101545.00
2018-09-10T11:57:18.004Z,101545.00
2018-09-10T12:03:21.488Z,101562.00
2018-09-10T12:09:25.463Z,101563.00
2018-09-10T12:15:29.584Z,101582.00
2018-09-10T12:21:33.849Z,101577.00
2018-09-10T12:27:37.957Z,101576.00
2018-09-10T12:33:42.137Z,101581.00
2018-09-10T12:39:46.526Z,101581.00
2018-09-10T12:45:50.108Z,101584.00
2018-09-10T12:51:53.761Z,101589.00
2018-09-10T12:57:57.385Z,101552.00
2018-09-10T13:04:00.807Z,101583.00
2018-09-10T13:10:04.342Z,101577.00
2018-09-10T13:16:07.862Z,101560.00
2018-09-10T13:22:11.205Z,101567.00
2018-09-10T13:28:14.719Z,101557.00
2018-09-10T13:34:18.124Z,101568.00
2018-09-10T13:40:21.830Z,101564.00
2018-09-10T13:46:26.492Z,101565.00
2018-09-10T13:52:31.150Z,101574.00
2018-09-10T13:58:37.822Z,101574.00
2018-09-10T14:04:41.650Z,101563.00
2018-09-10T14:10:45.202Z,101550.00
2018-09-10T14:16:51.482Z,101549.00
2018-09-10T14:22:55.856Z,101550.00
2018-09-10T14:29:00.730Z,101550.00
2018-09-10T14:35:05.289Z,101547.00
2018-09-10T14:41:09.471Z,101561.00
2018-09-10T14:47:13.519Z,101569.00
2018-09-10T14:53:17.110Z,101581.00
2018-09-10T14:59:21.494Z,101566.00
2018-09-10T15:05:25.853Z,101570.00
2018-09-10T15:11:29.502Z,101563.00
2018-09-10T15:17:33.381Z,101591.00
2018-09-10T15:23:37.314Z,101592.00
2018-09-10T15:29:47.823Z,101583.00
2018-09-10T15:35:51.450Z,101588.00
2018-09-10T15:41:55.398Z,101580.00
2018-09-10T15:47:59.345Z,101565.00
2018-09-10T15:54:03.202Z,101562.00
2018-09-10T16:00:07.049Z,101565.00
2018-09-10T16:06:11.979Z,101558.00
2018-09-10T16:12:15.758Z,101563.00
2018-09-10T16:18:20.305Z,101564.00
2018-09-10T16:24:24.382Z,101578.00
2018-09-10T16:30:28.152Z,101570.00
2018-09-10T16:36:31.619Z,101560.00
2018-09-10T16:42:35.158Z,101540.00
2018-09-10T16:48:38.872Z,101543.00
2018-09-10T16:54:42.781Z,101547.00
2018-09-10T17:00:46.531Z,101547.00
2018-09-10T17:06:50.296Z,101561.00
2018-09-10T17:12:53.962Z,101563.00
2018-09-10T17:18:57.450Z,101564.00
2018-09-10T17:25:01.128Z,101553.00
2018-09-10T17:31:04.720Z,101546.00
2018-09-10T17:37:08.659Z,101544.00
2018-09-10T17:43:13.509Z,101550.00
2018-09-10T17:49:26.749Z,101547.00
2018-09-10T17:55:33.240Z,101572.00
2018-09-10T18:01:40.234Z,101586.00
2018-09-10T18:07:45.242Z,101614.00
2018-09-10T18:13:50.934Z,101609.00
2018-09-10T18:19:55.952Z,101604.00
2018-09-10T18:26:00.902Z,101604.00
2018-09-10T18:32:07.138Z,101617.00
2018-09-10T18:38:11.506Z,101601.00
2018-09-10T18:44:16.635Z,101615.00
2018-09-10T18:50:21.522Z,101586.00
2018-09-10T18:56:26.115Z,101565.00
2018-09-10T19:02:31.429Z,101563.00
2018-09-10T19:08:36.229Z,101559.00
2018-09-10T19:14:41.093Z,101557.00
2018-09-10T19:20:45.401Z,101537.00
2018-09-10T19:26:48.947Z,101531.00
2018-09-10T19:32:53.968Z,101555.00
2018-09-10T19:38:57.501Z,101540.00
2018-09-10T19:45:01.285Z,101563.00
2018-09-10T19:51:04.869Z,101575.00
2018-09-10T19:57:09.006Z,101563.00
2018-09-10T20:03:19.087Z,101558.00
2018-09-10T20:09:23.900Z,101560.00
2018-09-10T20:15:28.867Z,101561.00
2018-09-10T20:21:34.012Z,101560.00
2018-09-10T20:27:39.291Z,101564.00
2018-09-10T20:33:49.219Z,101570.00
2018-09-10T20:39:53.419Z,101578.00
2018-09-10T20:45:57.435Z,101574.00
2018-09-10T20:52:01.170Z,101575.00
2018-09-10T20:58:04.895Z,101579.00
2018-09-10T21:04:08.953Z,101591.00
2018-09-10T21:10:12.966Z,101606.00
2018-09-10T21:16:16.973Z,101589.00
2018-09-10T21:22:20.632Z,101597.00
2018-09-10T21:28:24.545Z,101600.00
2018-09-10T21:34:28.246Z,101606.00
2018-09-10T21:40:32.025Z,101617.00
2018-09-10T21:46:35.602Z,101599.00
2018-09-10T21:52:39.328Z,101598.00
2018-09-10T21:58:43.363Z,101582.00
2018-09-10T22:04:47.546Z,101595.00
2018-09-10T22:10:51.281Z,101553.00
2018-09-10T22:16:55.714Z,101597.00
2018-09-10T22:22:59.452Z,101596.00
2018-09-10T22:29:02.831Z,101603.00
2018-09-10T22:35:06.694Z,101616.00
2018-09-10T22:41:10.300Z,101597.00
2018-09-10T22:47:13.924Z,101604.00
2018-09-10T22:53:17.790Z,101612.00
2018-09-10T22:59:21.284Z,101616.00
2018-09-10T23:05:25.017Z,101614.00
2018-09-10T23:11:28.841Z,101615.00
2018-09-10T23:17:32.265Z,101606.00
2018-09-10T23:23:36.549Z,101598.00
2018-09-10T23:29:40.835Z,101598.00
2018-09-10T23:35:44.705Z,101597.00
2018-09-10T23:41:48.249Z,101586.00
2018-09-10T23:47:51.785Z,101588.00
2018-09-10T23:53:55.754Z,101599.00
2018-09-10T23:59:59.274Z,101595.00
